sensor_id;sensor_type;location;lat;lon;timestamp;P1;durP1;ratioP1;P2;durP2;ratioP2
12846;SDS011;6492;48.128;8.320;2023-04-09T00:01:53;16.43;;;13.60;;
12846;SDS011;6492;48.128;8.320;2023-04-09T00:05:55;14.93;;;11.77;;
12846;SDS011;6492;48.128;8.320;2023-04-09T00:09:58;17.63;;;12.80;;
12846;SDS011;6492;48.128;8.320;2023-04-09T00:14:00;16.77;;;12.00;;
12846;SDS011;6492;48.128;8.320;2023-04-09T00:18:02;18.53;;;13.33;;
12846;SDS011;6492;48.128;8.320;2023-04-09T00:22:04;14.83;;;12.13;;
12846;SDS011;6492;48.128;8.320;2023-04-09T00:26:07;17.23;;;13.10;;
12846;SDS011;6492;48.128;8.320;2023-04-09T00:30:09;14.43;;;11.83;;
12846;SDS011;6492;48.128;8.320;2023-04-09T00:34:11;14.80;;;11.10;;
12846;SDS011;6492;48.128;8.320;2023-04-09T00:38:13;16.87;;;13.00;;
12846;SDS011;6492;48.128;8.320;2023-04-09T00:42:16;18.23;;;12.60;;
12846;SDS011;6492;48.128;8.320;2023-04-09T00:46:18;18.07;;;12.37;;
12846;SDS011;6492;48.128;8.320;2023-04-09T00:50:20;17.17;;;12.80;;
12846;SDS011;6492;48.128;8.320;2023-04-09T00:54:22;18.37;;;13.30;;
12846;SDS011;6492;48.128;8.320;2023-04-09T00:58:32;15.73;;;12.57;;
12846;SDS011;6492;48.128;8.320;2023-04-09T01:02:34;15.33;;;11.97;;
12846;SDS011;6492;48.128;8.320;2023-04-09T01:06:38;18.27;;;13.07;;
12846;SDS011;6492;48.128;8.320;2023-04-09T01:10:46;15.63;;;11.70;;
12846;SDS011;6492;48.128;8.320;2023-04-09T01:14:58;16.33;;;12.23;;
12846;SDS011;6492;48.128;8.320;2023-04-09T01:19:08;14.27;;;11.77;;
12846;SDS011;6492;48.128;8.320;2023-04-09T01:23:22;16.53;;;13.23;;
12846;SDS011;6492;48.128;8.320;2023-04-09T01:27:33;19.63;;;13.43;;
12846;SDS011;6492;48.128;8.320;2023-04-09T01:31:45;16.53;;;11.97;;
12846;SDS011;6492;48.128;8.320;2023-04-09T01:35:48;20.30;;;14.57;;
12846;SDS011;6492;48.128;8.320;2023-04-09T01:39:50;24.43;;;17.50;;
12846;SDS011;6492;48.128;8.320;2023-04-09T01:43:52;21.07;;;15.90;;
12846;SDS011;6492;48.128;8.320;2023-04-09T01:47:56;20.70;;;14.83;;
12846;SDS011;6492;48.128;8.320;2023-04-09T01:51:58;21.23;;;16.87;;
12846;SDS011;6492;48.128;8.320;2023-04-09T01:56:01;25.33;;;16.83;;
12846;SDS011;6492;48.128;8.320;2023-04-09T02:00:03;25.30;;;17.43;;
12846;SDS011;6492;48.128;8.320;2023-04-09T02:04:09;22.63;;;16.67;;
12846;SDS011;6492;48.128;8.320;2023-04-09T02:08:16;22.93;;;16.10;;
12846;SDS011;6492;48.128;8.320;2023-04-09T02:12:21;22.57;;;16.07;;
12846;SDS011;6492;48.128;8.320;2023-04-09T02:16:27;21.37;;;15.33;;
12846;SDS011;6492;48.128;8.320;2023-04-09T02:20:30;22.30;;;15.47;;
12846;SDS011;6492;48.128;8.320;2023-04-09T02:24:32;25.07;;;17.83;;
12846;SDS011;6492;48.128;8.320;2023-04-09T02:28:35;24.53;;;16.50;;
12846;SDS011;6492;48.128;8.320;2023-04-09T02:32:37;24.80;;;17.23;;
12846;SDS011;6492;48.128;8.320;2023-04-09T02:36:40;23.60;;;16.30;;
12846;SDS011;6492;48.128;8.320;2023-04-09T02:40:42;22.17;;;15.90;;
12846;SDS011;6492;48.128;8.320;2023-04-09T02:44:43;21.97;;;15.27;;
12846;SDS011;6492;48.128;8.320;2023-04-09T02:48:45;22.70;;;14.97;;
12846;SDS011;6492;48.128;8.320;2023-04-09T02:52:48;21.97;;;15.23;;
12846;SDS011;6492;48.128;8.320;2023-04-09T02:56:50;23.83;;;16.60;;
12846;SDS011;6492;48.128;8.320;2023-04-09T03:00:52;23.50;;;16.17;;
12846;SDS011;6492;48.128;8.320;2023-04-09T03:04:53;25.70;;;17.40;;
12846;SDS011;6492;48.128;8.320;2023-04-09T03:08:56;25.70;;;17.17;;
12846;SDS011;6492;48.128;8.320;2023-04-09T03:12:58;26.90;;;17.43;;
12846;SDS011;6492;48.128;8.320;2023-04-09T03:17:00;25.90;;;17.57;;
12846;SDS011;6492;48.128;8.320;2023-04-09T03:21:03;26.20;;;17.23;;
12846;SDS011;6492;48.128;8.320;2023-04-09T03:25:08;27.40;;;17.97;;
12846;SDS011;6492;48.128;8.320;2023-04-09T03:29:10;28.13;;;16.63;;
12846;SDS011;6492;48.128;8.320;2023-04-09T03:33:11;27.27;;;17.33;;
12846;SDS011;6492;48.128;8.320;2023-04-09T03:37:13;26.03;;;15.90;;
12846;SDS011;6492;48.128;8.320;2023-04-09T03:41:16;24.90;;;15.77;;
12846;SDS011;6492;48.128;8.320;2023-04-09T03:45:18;25.20;;;16.03;;
12846;SDS011;6492;48.128;8.320;2023-04-09T03:49:20;25.63;;;16.57;;
12846;SDS011;6492;48.128;8.320;2023-04-09T03:53:22;27.27;;;17.17;;
12846;SDS011;6492;48.128;8.320;2023-04-09T03:57:25;25.93;;;15.90;;
12846;SDS011;6492;48.128;8.320;2023-04-09T04:01:27;28.27;;;17.30;;
12846;SDS011;6492;48.128;8.320;2023-04-09T04:05:29;30.27;;;17.70;;
12846;SDS011;6492;48.128;8.320;2023-04-09T04:09:30;24.17;;;14.47;;
12846;SDS011;6492;48.128;8.320;2023-04-09T04:13:33;29.20;;;17.53;;
12846;SDS011;6492;48.128;8.320;2023-04-09T04:17:36;27.03;;;16.03;;
12846;SDS011;6492;48.128;8.320;2023-04-09T04:21:37;27.33;;;16.37;;
12846;SDS011;6492;48.128;8.320;2023-04-09T04:25:39;34.03;;;17.83;;
12846;SDS011;6492;48.128;8.320;2023-04-09T04:29:43;25.60;;;15.50;;
12846;SDS011;6492;48.128;8.320;2023-04-09T04:33:45;25.87;;;16.27;;
12846;SDS011;6492;48.128;8.320;2023-04-09T04:37:48;30.47;;;18.63;;
12846;SDS011;6492;48.128;8.320;2023-04-09T04:41:50;27.43;;;17.67;;
12846;SDS011;6492;48.128;8.320;2023-04-09T04:45:54;28.37;;;17.07;;
12846;SDS011;6492;48.128;8.320;2023-04-09T04:49:55;28.80;;;17.43;;
12846;SDS011;6492;48.128;8.320;2023-04-09T04:53:57;26.87;;;15.73;;
12846;SDS011;6492;48.128;8.320;2023-04-09T04:57:59;29.30;;;17.37;;
12846;SDS011;6492;48.128;8.320;2023-04-09T05:02:02;27.57;;;16.57;;
12846;SDS011;6492;48.128;8.320;2023-04-09T05:06:04;24.87;;;15.27;;
12846;SDS011;6492;48.128;8.320;2023-04-09T05:10:06;23.57;;;14.43;;
12846;SDS011;6492;48.128;8.320;2023-04-09T05:14:09;28.10;;;15.77;;
12846;SDS011;6492;48.128;8.320;2023-04-09T05:18:13;31.50;;;17.43;;
12846;SDS011;6492;48.128;8.320;2023-04-09T05:22:15;29.73;;;15.93;;
12846;SDS011;6492;48.128;8.320;2023-04-09T05:26:17;25.87;;;16.37;;
12846;SDS011;6492;48.128;8.320;2023-04-09T05:30:19;29.90;;;18.13;;
12846;SDS011;6492;48.128;8.320;2023-04-09T05:34:22;28.60;;;16.90;;
12846;SDS011;6492;48.128;8.320;2023-04-09T05:38:24;29.80;;;17.03;;
12846;SDS011;6492;48.128;8.320;2023-04-09T05:42:25;23.80;;;15.97;;
12846;SDS011;6492;48.128;8.320;2023-04-09T05:46:27;26.03;;;16.23;;
12846;SDS011;6492;48.128;8.320;2023-04-09T05:50:31;28.33;;;16.87;;
12846;SDS011;6492;48.128;8.320;2023-04-09T05:54:33;24.83;;;16.60;;
12846;SDS011;6492;48.128;8.320;2023-04-09T05:58:35;28.20;;;17.37;;
12846;SDS011;6492;48.128;8.320;2023-04-09T06:02:53;29.53;;;17.57;;
12846;SDS011;6492;48.128;8.320;2023-04-09T06:06:56;26.87;;;17.20;;
12846;SDS011;6492;48.128;8.320;2023-04-09T06:10:59;29.20;;;16.83;;
12846;SDS011;6492;48.128;8.320;2023-04-09T06:15:01;28.20;;;16.40;;
12846;SDS011;6492;48.128;8.320;2023-04-09T06:19:04;28.97;;;17.97;;
12846;SDS011;6492;48.128;8.320;2023-04-09T06:23:07;27.97;;;16.57;;
12846;SDS011;6492;48.128;8.320;2023-04-09T06:27:09;27.87;;;16.73;;
12846;SDS011;6492;48.128;8.320;2023-04-09T06:31:11;25.70;;;16.13;;
12846;SDS011;6492;48.128;8.320;2023-04-09T06:35:12;27.70;;;17.70;;
12846;SDS011;6492;48.128;8.320;2023-04-09T06:39:23;28.27;;;16.80;;
12846;SDS011;6492;48.128;8.320;2023-04-09T06:43:24;26.00;;;17.07;;
12846;SDS011;6492;48.128;8.320;2023-04-09T06:47:26;26.43;;;17.17;;
12846;SDS011;6492;48.128;8.320;2023-04-09T06:55:40;26.90;;;17.97;;
12846;SDS011;6492;48.128;8.320;2023-04-09T06:59:42;27.23;;;18.17;;
12846;SDS011;6492;48.128;8.320;2023-04-09T07:03:44;24.80;;;16.13;;
12846;SDS011;6492;48.128;8.320;2023-04-09T07:07:46;22.83;;;15.13;;
12846;SDS011;6492;48.128;8.320;2023-04-09T07:11:50;24.20;;;16.63;;
12846;SDS011;6492;48.128;8.320;2023-04-09T07:15:51;24.73;;;15.80;;
12846;SDS011;6492;48.128;8.320;2023-04-09T07:19:55;21.97;;;14.47;;
12846;SDS011;6492;48.128;8.320;2023-04-09T07:23:57;19.80;;;14.00;;
12846;SDS011;6492;48.128;8.320;2023-04-09T07:28:10;21.27;;;14.93;;
12846;SDS011;6492;48.128;8.320;2023-04-09T07:32:24;17.37;;;12.80;;
12846;SDS011;6492;48.128;8.320;2023-04-09T07:36:40;17.40;;;12.93;;
12846;SDS011;6492;48.128;8.320;2023-04-09T07:40:45;17.83;;;12.87;;
12846;SDS011;6492;48.128;8.320;2023-04-09T07:44:56;21.50;;;15.87;;
12846;SDS011;6492;48.128;8.320;2023-04-09T07:48:59;15.57;;;12.13;;
12846;SDS011;6492;48.128;8.320;2023-04-09T07:57:08;14.53;;;10.47;;
12846;SDS011;6492;48.128;8.320;2023-04-09T08:01:11;14.60;;;11.20;;
12846;SDS011;6492;48.128;8.320;2023-04-09T08:05:13;14.57;;;10.93;;
12846;SDS011;6492;48.128;8.320;2023-04-09T08:09:14;14.90;;;10.90;;
12846;SDS011;6492;48.128;8.320;2023-04-09T08:13:18;16.30;;;11.67;;
12846;SDS011;6492;48.128;8.320;2023-04-09T08:17:21;13.53;;;10.17;;
12846;SDS011;6492;48.128;8.320;2023-04-09T08:21:23;11.53;;;9.40;;
12846;SDS011;6492;48.128;8.320;2023-04-09T08:25:25;10.57;;;8.90;;
12846;SDS011;6492;48.128;8.320;2023-04-09T08:29:31;13.67;;;10.07;;
12846;SDS011;6492;48.128;8.320;2023-04-09T08:33:35;12.83;;;10.30;;
12846;SDS011;6492;48.128;8.320;2023-04-09T08:37:36;13.40;;;9.40;;
12846;SDS011;6492;48.128;8.320;2023-04-09T08:41:39;10.57;;;8.00;;
12846;SDS011;6492;48.128;8.320;2023-04-09T08:45:43;12.97;;;8.23;;
12846;SDS011;6492;48.128;8.320;2023-04-09T08:49:47;8.77;;;7.30;;
12846;SDS011;6492;48.128;8.320;2023-04-09T08:53:51;11.87;;;8.97;;
12846;SDS011;6492;48.128;8.320;2023-04-09T08:57:56;8.50;;;7.57;;
12846;SDS011;6492;48.128;8.320;2023-04-09T09:02:07;8.57;;;7.67;;
12846;SDS011;6492;48.128;8.320;2023-04-09T09:06:20;8.90;;;7.00;;
12846;SDS011;6492;48.128;8.320;2023-04-09T09:10:23;7.10;;;6.23;;
12846;SDS011;6492;48.128;8.320;2023-04-09T09:14:37;8.37;;;7.37;;
12846;SDS011;6492;48.128;8.320;2023-04-09T09:18:40;8.27;;;7.13;;
12846;SDS011;6492;48.128;8.320;2023-04-09T09:22:59;7.20;;;6.47;;
12846;SDS011;6492;48.128;8.320;2023-04-09T09:27:01;7.97;;;7.13;;
12846;SDS011;6492;48.128;8.320;2023-04-09T09:31:06;9.23;;;7.40;;
12846;SDS011;6492;48.128;8.320;2023-04-09T09:35:09;10.63;;;7.97;;
12846;SDS011;6492;48.128;8.320;2023-04-09T09:43:42;7.90;;;7.10;;
12846;SDS011;6492;48.128;8.320;2023-04-09T09:47:44;7.23;;;6.53;;
12846;SDS011;6492;48.128;8.320;2023-04-09T09:51:46;7.67;;;6.50;;
12846;SDS011;6492;48.128;8.320;2023-04-09T09:55:56;7.53;;;6.73;;
12846;SDS011;6492;48.128;8.320;2023-04-09T10:00:01;7.50;;;6.73;;
12846;SDS011;6492;48.128;8.320;2023-04-09T10:04:04;8.20;;;7.00;;
12846;SDS011;6492;48.128;8.320;2023-04-09T10:08:07;7.93;;;7.13;;
12846;SDS011;6492;48.128;8.320;2023-04-09T10:12:12;7.83;;;6.67;;
12846;SDS011;6492;48.128;8.320;2023-04-09T10:16:18;9.47;;;7.07;;
12846;SDS011;6492;48.128;8.320;2023-04-09T10:20:25;6.60;;;5.90;;
12846;SDS011;6492;48.128;8.320;2023-04-09T10:24:34;7.40;;;5.90;;
12846;SDS011;6492;48.128;8.320;2023-04-09T10:28:41;6.03;;;5.43;;
12846;SDS011;6492;48.128;8.320;2023-04-09T10:32:43;8.43;;;7.07;;
12846;SDS011;6492;48.128;8.320;2023-04-09T10:36:55;7.07;;;6.37;;
12846;SDS011;6492;48.128;8.320;2023-04-09T10:40:58;5.80;;;5.30;;
12846;SDS011;6492;48.128;8.320;2023-04-09T10:45:22;5.43;;;4.73;;
12846;SDS011;6492;48.128;8.320;2023-04-09T10:49:34;5.60;;;5.00;;
12846;SDS011;6492;48.128;8.320;2023-04-09T10:53:37;5.03;;;4.53;;
12846;SDS011;6492;48.128;8.320;2023-04-09T10:57:40;5.40;;;4.90;;
12846;SDS011;6492;48.128;8.320;2023-04-09T11:01:52;5.80;;;5.20;;
12846;SDS011;6492;48.128;8.320;2023-04-09T11:05:58;5.13;;;4.63;;
12846;SDS011;6492;48.128;8.320;2023-04-09T11:10:01;5.63;;;5.13;;
12846;SDS011;6492;48.128;8.320;2023-04-09T11:14:03;5.63;;;5.03;;
12846;SDS011;6492;48.128;8.320;2023-04-09T11:18:08;5.70;;;5.10;;
12846;SDS011;6492;48.128;8.320;2023-04-09T11:22:15;5.30;;;4.80;;
12846;SDS011;6492;48.128;8.320;2023-04-09T11:26:21;9.80;;;8.80;;
12846;SDS011;6492;48.128;8.320;2023-04-09T11:30:24;5.50;;;4.90;;
12846;SDS011;6492;48.128;8.320;2023-04-09T11:34:27;5.00;;;4.50;;
12846;SDS011;6492;48.128;8.320;2023-04-09T11:38:30;5.97;;;5.07;;
12846;SDS011;6492;48.128;8.320;2023-04-09T11:42:32;5.97;;;5.40;;
12846;SDS011;6492;48.128;8.320;2023-04-09T11:46:40;5.30;;;4.80;;
12846;SDS011;6492;48.128;8.320;2023-04-09T11:50:43;5.40;;;4.90;;
12846;SDS011;6492;48.128;8.320;2023-04-09T11:54:47;6.63;;;6.03;;
12846;SDS011;6492;48.128;8.320;2023-04-09T11:58:56;6.07;;;5.53;;
12846;SDS011;6492;48.128;8.320;2023-04-09T12:02:59;5.70;;;5.20;;
12846;SDS011;6492;48.128;8.320;2023-04-09T12:07:06;5.90;;;5.40;;
12846;SDS011;6492;48.128;8.320;2023-04-09T12:11:10;6.10;;;5.50;;
12846;SDS011;6492;48.128;8.320;2023-04-09T12:15:19;5.57;;;4.97;;
12846;SDS011;6492;48.128;8.320;2023-04-09T12:19:23;5.80;;;5.30;;
12846;SDS011;6492;48.128;8.320;2023-04-09T12:23:33;6.00;;;5.40;;
12846;SDS011;6492;48.128;8.320;2023-04-09T12:27:36;5.43;;;4.93;;
12846;SDS011;6492;48.128;8.320;2023-04-09T12:31:40;5.73;;;4.73;;
12846;SDS011;6492;48.128;8.320;2023-04-09T12:35:43;6.30;;;5.70;;
12846;SDS011;6492;48.128;8.320;2023-04-09T12:39:46;6.15;;;5.55;;
12846;SDS011;6492;48.128;8.320;2023-04-09T12:43:48;6.73;;;6.13;;
12846;SDS011;6492;48.128;8.320;2023-04-09T12:47:57;5.60;;;5.10;;
12846;SDS011;6492;48.128;8.320;2023-04-09T12:51:59;6.23;;;5.63;;
12846;SDS011;6492;48.128;8.320;2023-04-09T12:56:02;7.57;;;6.03;;
12846;SDS011;6492;48.128;8.320;2023-04-09T13:00:05;6.60;;;5.60;;
12846;SDS011;6492;48.128;8.320;2023-04-09T13:04:08;9.57;;;8.57;;
12846;SDS011;6492;48.128;8.320;2023-04-09T13:08:09;5.23;;;4.73;;
12846;SDS011;6492;48.128;8.320;2023-04-09T13:12:13;6.10;;;5.50;;
12846;SDS011;6492;48.128;8.320;2023-04-09T13:16:15;5.60;;;5.07;;
12846;SDS011;6492;48.128;8.320;2023-04-09T13:20:17;5.93;;;5.33;;
12846;SDS011;6492;48.128;8.320;2023-04-09T13:24:19;5.65;;;5.15;;
12846;SDS011;6492;48.128;8.320;2023-04-09T13:28:22;6.30;;;5.70;;
12846;SDS011;6492;48.128;8.320;2023-04-09T13:32:25;5.60;;;5.10;;
12846;SDS011;6492;48.128;8.320;2023-04-09T13:36:26;5.18;;;4.68;;
12846;SDS011;6492;48.128;8.320;2023-04-09T13:40:28;4.78;;;4.20;;
12846;SDS011;6492;48.128;8.320;2023-04-09T13:44:31;5.95;;;5.00;;
12846;SDS011;6492;48.128;8.320;2023-04-09T13:48:34;5.07;;;4.57;;
12846;SDS011;6492;48.128;8.320;2023-04-09T13:52:35;5.53;;;4.47;;
12846;SDS011;6492;48.128;8.320;2023-04-09T13:56:37;5.53;;;5.03;;
12846;SDS011;6492;48.128;8.320;2023-04-09T14:00:40;5.03;;;4.57;;
12846;SDS011;6492;48.128;8.320;2023-04-09T14:04:42;5.18;;;4.65;;
12846;SDS011;6492;48.128;8.320;2023-04-09T14:08:44;4.70;;;4.30;;
12846;SDS011;6492;48.128;8.320;2023-04-09T14:12:46;4.78;;;4.38;;
12846;SDS011;6492;48.128;8.320;2023-04-09T14:16:49;4.68;;;4.28;;
12846;SDS011;6492;48.128;8.320;2023-04-09T14:20:50;4.80;;;4.40;;
12846;SDS011;6492;48.128;8.320;2023-04-09T14:24:52;4.95;;;4.47;;
12846;SDS011;6492;48.128;8.320;2023-04-09T14:28:54;4.50;;;4.10;;
12846;SDS011;6492;48.128;8.320;2023-04-09T14:32:57;5.10;;;4.63;;
12846;SDS011;6492;48.128;8.320;2023-04-09T14:36:59;5.13;;;4.65;;
12846;SDS011;6492;48.128;8.320;2023-04-09T14:41:01;5.30;;;4.80;;
12846;SDS011;6492;48.128;8.320;2023-04-09T14:45:03;5.47;;;4.97;;
12846;SDS011;6492;48.128;8.320;2023-04-09T14:49:07;5.47;;;4.97;;
12846;SDS011;6492;48.128;8.320;2023-04-09T14:53:22;5.40;;;4.90;;
12846;SDS011;6492;48.128;8.320;2023-04-09T14:57:24;5.10;;;4.63;;
12846;SDS011;6492;48.128;8.320;2023-04-09T15:01:26;5.70;;;5.20;;
12846;SDS011;6492;48.128;8.320;2023-04-09T15:05:29;5.90;;;5.40;;
12846;SDS011;6492;48.128;8.320;2023-04-09T15:09:31;5.30;;;4.80;;
12846;SDS011;6492;48.128;8.320;2023-04-09T15:13:33;5.22;;;4.70;;
12846;SDS011;6492;48.128;8.320;2023-04-09T15:17:34;4.93;;;4.43;;
12846;SDS011;6492;48.128;8.320;2023-04-09T15:21:38;5.30;;;4.80;;
12846;SDS011;6492;48.128;8.320;2023-04-09T15:25:40;5.60;;;5.00;;
12846;SDS011;6492;48.128;8.320;2023-04-09T15:29:41;5.30;;;4.80;;
12846;SDS011;6492;48.128;8.320;2023-04-09T15:33:43;6.17;;;4.37;;
12846;SDS011;6492;48.128;8.320;2023-04-09T15:37:47;5.10;;;4.60;;
12846;SDS011;6492;48.128;8.320;2023-04-09T15:41:49;5.37;;;4.87;;
12846;SDS011;6492;48.128;8.320;2023-04-09T15:45:51;6.00;;;5.40;;
12846;SDS011;6492;48.128;8.320;2023-04-09T15:49:53;5.87;;;5.27;;
12846;SDS011;6492;48.128;8.320;2023-04-09T15:53:57;5.43;;;4.93;;
12846;SDS011;6492;48.128;8.320;2023-04-09T15:57:59;5.93;;;4.40;;
12846;SDS011;6492;48.128;8.320;2023-04-09T16:02:01;10.53;;;8.57;;
12846;SDS011;6492;48.128;8.320;2023-04-09T16:06:04;5.40;;;4.90;;
12846;SDS011;6492;48.128;8.320;2023-04-09T16:10:09;5.30;;;4.80;;
12846;SDS011;6492;48.128;8.320;2023-04-09T16:14:10;5.10;;;4.60;;
12846;SDS011;6492;48.128;8.320;2023-04-09T16:18:12;4.60;;;4.20;;
12846;SDS011;6492;48.128;8.320;2023-04-09T16:22:14;5.10;;;4.60;;
12846;SDS011;6492;48.128;8.320;2023-04-09T16:26:17;5.20;;;4.70;;
12846;SDS011;6492;48.128;8.320;2023-04-09T16:30:19;5.00;;;4.30;;
12846;SDS011;6492;48.128;8.320;2023-04-09T16:34:21;4.97;;;4.47;;
12846;SDS011;6492;48.128;8.320;2023-04-09T16:38:23;4.57;;;4.03;;
12846;SDS011;6492;48.128;8.320;2023-04-09T16:42:29;4.60;;;4.20;;
12846;SDS011;6492;48.128;8.320;2023-04-09T16:46:31;4.87;;;4.37;;
12846;SDS011;6492;48.128;8.320;2023-04-09T16:50:33;5.13;;;4.03;;
12846;SDS011;6492;48.128;8.320;2023-04-09T16:54:35;5.50;;;4.30;;
12846;SDS011;6492;48.128;8.320;2023-04-09T16:58:38;4.20;;;3.80;;
12846;SDS011;6492;48.128;8.320;2023-04-09T17:02:40;4.37;;;3.80;;
12846;SDS011;6492;48.128;8.320;2023-04-09T17:06:41;5.70;;;5.10;;
12846;SDS011;6492;48.128;8.320;2023-04-09T17:10:43;5.50;;;3.90;;
12846;SDS011;6492;48.128;8.320;2023-04-09T17:14:50;4.43;;;4.00;;
12846;SDS011;6492;48.128;8.320;2023-04-09T17:18:52;4.50;;;4.03;;
12846;SDS011;6492;48.128;8.320;2023-04-09T17:22:54;6.17;;;4.40;;
12846;SDS011;6492;48.128;8.320;2023-04-09T17:26:56;4.20;;;3.80;;
12846;SDS011;6492;48.128;8.320;2023-04-09T17:30:59;4.93;;;4.30;;
12846;SDS011;6492;48.128;8.320;2023-04-09T17:35:01;4.13;;;3.73;;
12846;SDS011;6492;48.128;8.320;2023-04-09T17:39:03;3.90;;;3.50;;
12846;SDS011;6492;48.128;8.320;2023-04-09T17:43:05;5.83;;;4.20;;
12846;SDS011;6492;48.128;8.320;2023-04-09T17:47:08;4.50;;;4.10;;
12846;SDS011;6492;48.128;8.320;2023-04-09T17:51:12;4.27;;;3.73;;
12846;SDS011;6492;48.128;8.320;2023-04-09T17:55:15;3.50;;;3.20;;
12846;SDS011;6492;48.128;8.320;2023-04-09T17:59:17;3.40;;;3.10;;
12846;SDS011;6492;48.128;8.320;2023-04-09T18:03:20;4.97;;;4.57;;
12846;SDS011;6492;48.128;8.320;2023-04-09T18:07:22;4.17;;;3.73;;
12846;SDS011;6492;48.128;8.320;2023-04-09T18:11:28;5.20;;;4.60;;
12846;SDS011;6492;48.128;8.320;2023-04-09T18:15:30;5.33;;;3.67;;
12846;SDS011;6492;48.128;8.320;2023-04-09T18:19:33;3.83;;;3.27;;
12846;SDS011;6492;48.128;8.320;2023-04-09T18:23:35;3.47;;;3.07;;
12846;SDS011;6492;48.128;8.320;2023-04-09T18:27:38;4.80;;;4.27;;
12846;SDS011;6492;48.128;8.320;2023-04-09T18:31:41;6.47;;;5.33;;
12846;SDS011;6492;48.128;8.320;2023-04-09T18:35:44;4.90;;;4.17;;
12846;SDS011;6492;48.128;8.320;2023-04-09T18:39:47;6.70;;;5.90;;
12846;SDS011;6492;48.128;8.320;2023-04-09T18:43:49;8.03;;;6.30;;
12846;SDS011;6492;48.128;8.320;2023-04-09T18:48:01;7.13;;;5.00;;
12846;SDS011;6492;48.128;8.320;2023-04-09T18:52:22;4.80;;;4.30;;
12846;SDS011;6492;48.128;8.320;2023-04-09T18:56:24;24.50;;;13.30;;
12846;SDS011;6492;48.128;8.320;2023-04-09T19:00:35;20.07;;;11.67;;
12846;SDS011;6492;48.128;8.320;2023-04-09T19:04:38;10.70;;;7.83;;
12846;SDS011;6492;48.128;8.320;2023-04-09T19:08:42;12.20;;;8.23;;
12846;SDS011;6492;48.128;8.320;2023-04-09T19:12:44;11.80;;;8.00;;
12846;SDS011;6492;48.128;8.320;2023-04-09T19:16:52;7.90;;;5.97;;
12846;SDS011;6492;48.128;8.320;2023-04-09T19:20:58;7.07;;;5.33;;
12846;SDS011;6492;48.128;8.320;2023-04-09T19:25:02;5.53;;;4.20;;
12846;SDS011;6492;48.128;8.320;2023-04-09T19:29:06;5.57;;;4.03;;
12846;SDS011;6492;48.128;8.320;2023-04-09T19:33:15;5.60;;;4.20;;
12846;SDS011;6492;48.128;8.320;2023-04-09T19:37:17;5.47;;;4.47;;
12846;SDS011;6492;48.128;8.320;2023-04-09T19:41:29;5.77;;;4.30;;
12846;SDS011;6492;48.128;8.320;2023-04-09T19:45:31;5.47;;;4.20;;
12846;SDS011;6492;48.128;8.320;2023-04-09T19:49:41;10.03;;;6.03;;
12846;SDS011;6492;48.128;8.320;2023-04-09T19:53:43;8.63;;;5.27;;
12846;SDS011;6492;48.128;8.320;2023-04-09T19:57:47;8.57;;;4.90;;
12846;SDS011;6492;48.128;8.320;2023-04-09T20:01:51;6.57;;;4.80;;
12846;SDS011;6492;48.128;8.320;2023-04-09T20:05:53;5.73;;;4.43;;
12846;SDS011;6492;48.128;8.320;2023-04-09T20:09:55;7.73;;;5.03;;
12846;SDS011;6492;48.128;8.320;2023-04-09T20:14:06;7.50;;;5.80;;
12846;SDS011;6492;48.128;8.320;2023-04-09T20:18:16;7.00;;;5.37;;
12846;SDS011;6492;48.128;8.320;2023-04-09T20:22:18;7.37;;;5.20;;
12846;SDS011;6492;48.128;8.320;2023-04-09T20:26:21;6.80;;;5.40;;
12846;SDS011;6492;48.128;8.320;2023-04-09T20:30:33;6.77;;;5.23;;
12846;SDS011;6492;48.128;8.320;2023-04-09T20:34:35;6.57;;;5.20;;
12846;SDS011;6492;48.128;8.320;2023-04-09T20:42:44;8.37;;;6.20;;
12846;SDS011;6492;48.128;8.320;2023-04-09T20:46:48;7.63;;;5.77;;
12846;SDS011;6492;48.128;8.320;2023-04-09T20:50:51;6.53;;;5.33;;
12846;SDS011;6492;48.128;8.320;2023-04-09T20:54:52;6.30;;;4.97;;
12846;SDS011;6492;48.128;8.320;2023-04-09T20:58:55;6.60;;;5.30;;
12846;SDS011;6492;48.128;8.320;2023-04-09T21:03:06;7.47;;;5.80;;
12846;SDS011;6492;48.128;8.320;2023-04-09T21:07:08;7.30;;;5.50;;
12846;SDS011;6492;48.128;8.320;2023-04-09T21:11:22;6.33;;;5.10;;
12846;SDS011;6492;48.128;8.320;2023-04-09T21:15:38;7.67;;;5.53;;
12846;SDS011;6492;48.128;8.320;2023-04-09T21:19:43;8.57;;;6.17;;
12846;SDS011;6492;48.128;8.320;2023-04-09T21:23:46;8.93;;;6.93;;
12846;SDS011;6492;48.128;8.320;2023-04-09T21:27:48;9.30;;;6.53;;
12846;SDS011;6492;48.128;8.320;2023-04-09T21:31:50;9.90;;;6.80;;
12846;SDS011;6492;48.128;8.320;2023-04-09T21:35:54;10.20;;;7.00;;
12846;SDS011;6492;48.128;8.320;2023-04-09T21:40:02;10.10;;;7.10;;
12846;SDS011;6492;48.128;8.320;2023-04-09T21:44:04;8.03;;;6.27;;
12846;SDS011;6492;48.128;8.320;2023-04-09T21:48:07;8.80;;;6.40;;
12846;SDS011;6492;48.128;8.320;2023-04-09T21:52:10;9.43;;;6.97;;
12846;SDS011;6492;48.128;8.320;2023-04-09T21:56:13;10.33;;;7.17;;
12846;SDS011;6492;48.128;8.320;2023-04-09T22:00:17;11.47;;;7.63;;
12846;SDS011;6492;48.128;8.320;2023-04-09T22:04:19;13.13;;;7.93;;
12846;SDS011;6492;48.128;8.320;2023-04-09T22:08:22;11.93;;;8.23;;
12846;SDS011;6492;48.128;8.320;2023-04-09T22:16:31;14.23;;;8.63;;
12846;SDS011;6492;48.128;8.320;2023-04-09T22:20:36;12.57;;;8.37;;
12846;SDS011;6492;48.128;8.320;2023-04-09T22:24:39;11.40;;;7.80;;
12846;SDS011;6492;48.128;8.320;2023-04-09T22:28:40;12.93;;;8.60;;
12846;SDS011;6492;48.128;8.320;2023-04-09T22:32:53;13.40;;;9.07;;
12846;SDS011;6492;48.128;8.320;2023-04-09T22:36:55;11.73;;;8.20;;
12846;SDS011;6492;48.128;8.320;2023-04-09T22:40:59;11.67;;;8.60;;
12846;SDS011;6492;48.128;8.320;2023-04-09T22:45:01;13.03;;;8.77;;
12846;SDS011;6492;48.128;8.320;2023-04-09T22:49:02;13.27;;;8.70;;
12846;SDS011;6492;48.128;8.320;2023-04-09T22:53:04;13.87;;;8.93;;
12846;SDS011;6492;48.128;8.320;2023-04-09T22:57:07;13.53;;;8.87;;
12846;SDS011;6492;48.128;8.320;2023-04-09T23:01:09;11.90;;;8.27;;
12846;SDS011;6492;48.128;8.320;2023-04-09T23:05:11;14.07;;;8.40;;
12846;SDS011;6492;48.128;8.320;2023-04-09T23:09:13;12.90;;;8.93;;
12846;SDS011;6492;48.128;8.320;2023-04-09T23:13:16;13.30;;;9.33;;
12846;SDS011;6492;48.128;8.320;2023-04-09T23:17:18;12.30;;;8.20;;
12846;SDS011;6492;48.128;8.320;2023-04-09T23:21:21;10.97;;;8.13;;
12846;SDS011;6492;48.128;8.320;2023-04-09T23:25:23;12.03;;;8.43;;
12846;SDS011;6492;48.128;8.320;2023-04-09T23:29:26;13.07;;;8.37;;
12846;SDS011;6492;48.128;8.320;2023-04-09T23:33:28;13.33;;;8.37;;
12846;SDS011;6492;48.128;8.320;2023-04-09T23:37:31;12.00;;;7.87;;
12846;SDS011;6492;48.128;8.320;2023-04-09T23:41:33;11.00;;;8.27;;
12846;SDS011;6492;48.128;8.320;2023-04-09T23:45:36;12.37;;;8.17;;
12846;SDS011;6492;48.128;8.320;2023-04-09T23:49:38;11.60;;;8.30;;
12846;SDS011;6492;48.128;8.320;2023-04-09T23:53:39;11.00;;;7.70;;
12846;SDS011;6492;48.128;8.320;2023-04-09T23:57:41;11.00;;;8.10;;
